Thunder radar more information blitzortung!


Radar de pluja more information rain snow radar


Visita la nostra xarxa de llocs de meteo:

Template documentation
and downloads

And another site



No particular awareness of the weather is required.    There are no Weather-warnings

Pagina Historial Weather Underground text

Diari Resum Desembre 7, 2017 Unitats:  Imperial    Mètric   Tant
« Previous Dia
SegĂźent Dia »
Diari Setmana Mensual Anual Personalitzada
  Maxima: Minima: Media:
Temperatura: 53.4 °F 33.6 °F 45.3 °F
Punt de rosada: 38.7 °F 24.3 °F 32.5 °F
Humitat: 77 % 55 % 61 %
Wind Speed: 4.6 mph 0 mph 1.6 mph
RĂ fegues de vent: 4.6 mph - -
Vent:- - SE
Pression baro: 30.5 in 30.2 in -
Precipitacions: 0 in    
Historical Graphs
 
 
Dades de taula per Desembre 7, 2017
Temps Temperatura Punt de rosada Pression baro Vent Wind Speed RĂ fegues de vent Humitat Rainfall Rate (Hourly)
00:02 37.4 °F 28.9 °F 30.5 in NNE 2.3 mph 2.3 mph 71 % 0 in
00:05 34.3 °F 27 °F 30.4 in WNW 1 mph 2 mph 74 % 0 in
00:07 37.4 °F 28.9 °F 30.5 in NNE 2.3 mph 2.3 mph 71 % 0 in
00:15 34.3 °F 27.1 °F 30.4 in Calm   2 mph 75 % 0 in
00:25 34.3 °F 27.1 °F 30.4 in WSW 2 mph 2 mph 75 % 0 in
00:35 34.3 °F 27.1 °F 30.4 in Calm   1 mph 75 % 0 in
00:45 34.2 °F 27.1 °F 30.4 in Calm   1 mph 75 % 0 in
00:55 34.2 °F 27.1 °F 30.4 in Calm   1 mph 75 % 0 in
01:05 34.3 °F 27.7 °F 30.4 in Calm     76 % 0 in
01:15 34.3 °F 27.7 °F 30.4 in Calm     76 % 0 in
01:25 34.2 °F 27.3 °F 30.4 in Calm     76 % 0 in
01:35 34 °F 27.1 °F 30.4 in Calm   1 mph 76 % 0 in
01:45 33.8 °F 27 °F 30.4 in Calm     76 % 0 in
01:55 33.8 °F 27 °F 30.4 in NNW 1 mph 2 mph 76 % 0 in
02:05 33.8 °F 27 °F 30.4 in North 1 mph 1 mph 76 % 0 in
02:15 33.8 °F 27 °F 30.4 in Calm     76 % 0 in
02:25 33.6 °F 27 °F 30.4 in Calm     76 % 0 in
02:35 33.8 °F 27 °F 30.4 in Calm     76 % 0 in
02:45 34.3 °F 27.9 °F 30.4 in NNE 1 mph 2 mph 77 % 0 in
02:55 35.4 °F 28.9 °F 30.4 in Calm   1 mph 77 % 0 in
03:05 36.3 °F 29.8 °F 30.4 in ENE 1 mph 1 mph 77 % 0 in
03:15 36.1 °F 29.3 °F 30.4 in ENE 2 mph 2 mph 76 % 0 in
03:25 37 °F 30.2 °F 30.4 in East 1 mph 2 mph 76 % 0 in
03:35 37.2 °F 30 °F 30.4 in East 2 mph 2 mph 75 % 0 in
03:45 36.9 °F 29.3 °F 30.4 in Calm   2 mph 74 % 0 in
03:55 37.6 °F 30 °F 30.4 in ESE 1 mph 2 mph 74 % 0 in
04:05 38.7 °F 30.7 °F 30.4 in Calm   2 mph 73 % 0 in
04:15 39.4 °F 31.1 °F 30.4 in ESE 2 mph 2 mph 72 % 0 in
04:25 39.7 °F 31.5 °F 30.4 in SSW 1 mph 2 mph 72 % 0 in
04:35 39.9 °F 30.9 °F 30.4 in SSW 2 mph 2 mph 70 % 0 in
10:44 40.8 °F 31.5 °F 30.4 in SW 1.6 mph 1.6 mph 69 % 0 in
10:45 40.8 °F 31.5 °F 30.4 in SW 1.6 mph 1.6 mph 69 % 0 in
10:50 40.5 °F 31.1 °F 30.4 in WSW 1.2 mph 1.2 mph 69 % 0 in
10:55 40.6 °F 31.3 °F 30.4 in WSW 1.2 mph   69 % 0 in
11:00 40.6 °F 31.3 °F 30.5 in Calm     69 % 0 in
11:05 41 °F 31.6 °F 30.5 in ENE 1.4 mph 1.4 mph 69 % 0 in
11:10 41.5 °F 32.2 °F 30.5 in ESE 2.3 mph 2.3 mph 69 % 0 in
11:15 42.4 °F 33.1 °F 30.4 in NNE 1.2 mph   69 % 0 in
11:20 43.5 °F 33.6 °F 30.4 in East 2 mph 2 mph 68 % 0 in
11:25 44.2 °F 34.3 °F 30.4 in East 2.4 mph 2.4 mph 68 % 0 in
11:30 43.7 °F 33.1 °F 30.4 in ENE 3.5 mph 3.5 mph 66 % 0 in
11:35 44.4 °F 34.2 °F 30.4 in ENE 2.4 mph 2.4 mph 67 % 0 in
11:40 44.6 °F 34 °F 30.4 in East 3.1 mph 3.1 mph 66 % 0 in
11:45 45.1 °F 34.5 °F 30.4 in East 2.3 mph 2.3 mph 66 % 0 in
11:50 46 °F 35.2 °F 30.4 in Calm   2 mph 66 % 0 in
11:55 46.4 °F 35.2 °F 30.4 in NNE 2.4 mph 2.4 mph 65 % 0 in
12:00 46.9 °F 35.4 °F 30.4 in NNE 1.2 mph   64 % 0 in
12:05 47.3 °F 35.8 °F 30.4 in NE 2 mph 2 mph 64 % 0 in
12:10 47.7 °F 35.8 °F 30.4 in ENE 2.3 mph 2.3 mph 63 % 0 in
12:15 47.7 °F 35.8 °F 30.4 in NNE 2.3 mph 2.3 mph 63 % 0 in
12:20 48.2 °F 36.1 °F 30.4 in NNE 2.3 mph 2.3 mph 63 % 0 in
12:25 48.2 °F 36.1 °F 30.4 in NNE 2.3 mph 2.3 mph 63 % 0 in
12:30 48.7 °F 36.3 °F 30.4 in ENE 2.3 mph 2.3 mph 62 % 0 in
12:35 48.9 °F 36.5 °F 30.4 in NE 2.6 mph 2.6 mph 62 % 0 in
12:40 48.9 °F 36.1 °F 30.4 in NNW 2.3 mph 2.3 mph 61 % 0 in
12:45 49.5 °F 36.7 °F 30.4 in ENE 2.9 mph 2.9 mph 61 % 0 in
12:50 49.5 °F 36.7 °F 30.4 in NE 4.6 mph 4.6 mph 61 % 0 in
12:55 49.6 °F 36.7 °F 30.4 in NNE 3.5 mph 3.5 mph 61 % 0 in
13:00 50 °F 36.7 °F 30.4 in NE 3.5 mph 3.5 mph 60 % 0 in
13:05 50.5 °F 37.2 °F 30.4 in NE 3.1 mph 3.1 mph 60 % 0 in
13:10 50.5 °F 37.2 °F 30.4 in NNE 4.6 mph 4.6 mph 60 % 0 in
13:15 50.5 °F 36.7 °F 30.4 in NNE 4.6 mph 4.6 mph 59 % 0 in
13:20 50.5 °F 36.7 °F 30.4 in NNE 4.6 mph 4.6 mph 59 % 0 in
13:25 50.5 °F 36.7 °F 30.4 in ENE 3.8 mph 3.8 mph 59 % 0 in
13:30 50.5 °F 36.3 °F 30.4 in NNE 4 mph 4 mph 58 % 0 in
13:35 50.7 °F 36.5 °F 30.4 in ENE 4.6 mph 4.6 mph 58 % 0 in
13:40 51.3 °F 37 °F 30.4 in ENE 2.3 mph 2.3 mph 58 % 0 in
13:45 51.8 °F 37.6 °F 30.4 in ENE 2.3 mph 2.3 mph 58 % 0 in
13:50 52.2 °F 37.8 °F 30.4 in NNE 3.5 mph 3.5 mph 58 % 0 in
13:55 52.3 °F 37.9 °F 30.4 in ENE 2.3 mph 2.3 mph 58 % 0 in
14:00 52.3 °F 37.9 °F 30.4 in North 2.3 mph 2.6 mph 58 % 0 in
14:05 52.5 °F 38.1 °F 30.4 in NNE 2.3 mph 2.3 mph 58 % 0 in
14:10 52.5 °F 38.1 °F 30.4 in NNE 2.3 mph 2.3 mph 58 % 0 in
14:15 52.7 °F 38.3 °F 30.4 in NNE 3.5 mph 3.5 mph 58 % 0 in
14:25 52.7 °F 38.3 °F 30.4 in NE 4 mph 4 mph 58 % 0 in
14:30 52.5 °F 37.8 °F 30.4 in NNE 2.4 mph 2.4 mph 57 % 0 in
14:35 52.5 °F 38.1 °F 30.4 in NE 2 mph 3 mph 58 % 0 in
14:40 52.2 °F 37.4 °F 30.4 in NNE 3.5 mph 3.5 mph 57 % 0 in
14:45 52 °F 37.2 °F 30.4 in NE 2.3 mph 2.3 mph 57 % 0 in
14:55 52.2 °F 37.4 °F 30.4 in NNE 2.9 mph 2.9 mph 57 % 0 in
15:00 52.3 °F 37.6 °F 30.4 in NE 1 mph 4 mph 57 % 0 in
15:05 52.5 °F 37.8 °F 30.4 in ENE 2.3 mph 2.3 mph 57 % 0 in
15:10 52.9 °F 38.1 °F 30.4 in NNE 1.2 mph 1.2 mph 57 % 0 in
15:15 53.1 °F 38.1 °F 30.4 in NNE 3 mph 3 mph 57 % 0 in
15:20 53.2 °F 38.5 °F 30.4 in NE 3.5 mph 3.5 mph 57 % 0 in
15:25 53.2 °F 38.5 °F 30.4 in NNE 2.3 mph 2.3 mph 57 % 0 in
15:30 53.4 °F 38.7 °F 30.4 in NNE 1 mph 2 mph 57 % 0 in
15:35 53.2 °F 38.5 °F 30.4 in ENE 2.6 mph 2.6 mph 57 % 0 in
15:40 53.2 °F 37.9 °F 30.4 in NNE 2.9 mph 2.9 mph 56 % 0 in
15:45 53.2 °F 38.5 °F 30.4 in NE 1 mph 3 mph 57 % 0 in
15:50 53.2 °F 38.5 °F 30.4 in NW 2.3 mph 2.3 mph 57 % 0 in
16:00 53.1 °F 38.1 °F 30.4 in NNE 1.2 mph 1.2 mph 57 % 0 in
16:05 52.9 °F 38.1 °F 30.4 in North 1.2 mph   57 % 0 in
16:10 52.9 °F 37.6 °F 30.4 in Calm     56 % 0 in
16:20 52.7 °F 37.9 °F 30.4 in West 1.2 mph   57 % 0 in
16:30 52.2 °F 36.9 °F 30.4 in NNE 2.3 mph 2.3 mph 56 % 0 in
16:35 52 °F 36.9 °F 30.4 in North 1.2 mph 1.2 mph 56 % 0 in
16:40 52 °F 37.2 °F 30.4 in Calm     57 % 0 in
16:45 52 °F 37.2 °F 30.4 in NNW 1.2 mph   57 % 0 in
16:50 51.8 °F 36.7 °F 30.4 in NNE 2.3 mph   56 % 0 in
16:55 51.4 °F 36.3 °F 30.4 in North 0.9 mph   56 % 0 in
17:00 51.3 °F 36.1 °F 30.4 in Calm     56 % 0 in
17:05 51.1 °F 36 °F 30.4 in NW 1.2 mph   56 % 0 in
17:10 51.1 °F 36 °F 30.4 in NNE 1.2 mph 1.2 mph 56 % 0 in
17:15 50.9 °F 35.8 °F 30.4 in ENE 1.2 mph   56 % 0 in
17:20 50.7 °F 35.6 °F 30.4 in North 1.2 mph   56 % 0 in
17:30 50.5 °F 35.4 °F 30.4 in Calm     56 % 0 in
17:35 50.2 °F 35.1 °F 30.4 in West 2.3 mph 2.3 mph 56 % 0 in
17:40 49.8 °F 34.7 °F 30.4 in West 2.3 mph 2.3 mph 56 % 0 in
17:45 49.5 °F 34.9 °F 30.4 in WSW 2.3 mph 2.3 mph 57 % 0 in
17:55 49.5 °F 34.9 °F 30.4 in Calm     57 % 0 in
18:00 49.5 °F 34.9 °F 30.4 in West 2.3 mph 2.3 mph 57 % 0 in
18:05 49.6 °F 35.1 °F 30.4 in West 1.2 mph   57 % 0 in
18:10 49.6 °F 34.5 °F 30.4 in WSW 2.3 mph   56 % 0 in
18:15 49.5 °F 34.3 °F 30.4 in Calm     56 % 0 in
18:20 49.3 °F 34.2 °F 30.4 in SW 1.6 mph 1.6 mph 56 % 0 in
18:25 48.9 °F 34 °F 30.4 in SW 2.3 mph 2.3 mph 56 % 0 in
18:30 48.6 °F 33.6 °F 30.4 in West 2.3 mph 2.3 mph 56 % 0 in
18:35 48.7 °F 33.6 °F 30.4 in West 2.3 mph 2.3 mph 56 % 0 in
18:40 48.9 °F 34 °F 30.4 in West 2.3 mph 2.3 mph 56 % 0 in
18:45 48.9 °F 34 °F 30.4 in West 2.3 mph 2.3 mph 56 % 0 in
18:50 48.9 °F 34 °F 30.4 in SW 1.4 mph 1.4 mph 56 % 0 in
18:55 48.6 °F 33.1 °F 30.4 in SW 1.2 mph   55 % 0 in
19:00 48.4 °F 32.9 °F 30.3 in Calm     55 % 0 in
19:05 48 °F 32.5 °F 30.3 in SW 0.9 mph   55 % 0 in
19:20 47.5 °F 32.5 °F 30.4 in SW 1.4 mph 1.6 mph 56 % 0 in
19:25 47.3 °F 31.8 °F 30.4 in Calm     55 % 0 in
19:30 47.3 °F 31.8 °F 30.3 in Calm     55 % 0 in
19:35 47.3 °F 31.8 °F 30.3 in SW 2.3 mph 2.3 mph 55 % 0 in
19:40 47.1 °F 31.8 °F 30.3 in WSW 2.3 mph 2.3 mph 55 % 0 in
19:45 47.1 °F 31.8 °F 30.3 in WSW 2.3 mph 2.3 mph 55 % 0 in
19:50 47.1 °F 31.8 °F 30.3 in WSW 2.3 mph 2.3 mph 55 % 0 in
19:55 38.1 °F 25.3 °F 30.3 in SSW 2 mph 2 mph 60 % 0 in
20:00 46.8 °F 31.5 °F 30.3 in WSW 2.3 mph 2.3 mph 55 % 0 in
20:05 46.8 °F 31.5 °F 30.3 in WSW 1.2 mph 1.2 mph 55 % 0 in
20:15 37.9 °F 25.3 °F 30.3 in West 1 mph 2 mph 60 % 0 in
20:20 46.6 °F 31.3 °F 30.3 in West 2.3 mph 2.3 mph 55 % 0 in
20:25 46.2 °F 30.9 °F 30.3 in SW 2.3 mph 2.3 mph 55 % 0 in
20:30 45.7 °F 30.4 °F 30.3 in WSW 2.3 mph 2.3 mph 55 % 0 in
20:35 45.5 °F 30.4 °F 30.3 in Calm     55 % 0 in
20:40 45.5 °F 30.4 °F 30.3 in Calm     55 % 0 in
20:45 45.3 °F 30 °F 30.4 in SW 2.3 mph 2.3 mph 55 % 0 in
20:50 45.3 °F 30 °F 30.4 in West 1.6 mph 1.6 mph 55 % 0 in
20:55 45.3 °F 30 °F 30.4 in WSW 2.3 mph 2.3 mph 55 % 0 in
21:00 45.1 °F 29.8 °F 30.3 in West 1.2 mph 1.2 mph 55 % 0 in
21:05 38.1 °F 25.9 °F 30.2 in Calm     61 % 0 in
21:10 44.6 °F 29.5 °F 30.3 in Calm     55 % 0 in
21:15 44.6 °F 29.5 °F 30.3 in WNW 1.4 mph   55 % 0 in
21:25 37.6 °F 25.3 °F 30.2 in WSW 1 mph 2 mph 61 % 0 in
21:30 44.2 °F 29.1 °F 30.3 in SW 2.3 mph 2.3 mph 55 % 0 in
21:35 44.1 °F 28.9 °F 30.3 in WSW 2.3 mph 2.3 mph 55 % 0 in
21:40 44.1 °F 28.9 °F 30.3 in WSW 2.3 mph 2.3 mph 55 % 0 in
21:45 43.7 °F 28.6 °F 30.3 in WSW 2.2 mph 2.2 mph 55 % 0 in
21:50 43.5 °F 28.4 °F 30.3 in Calm     55 % 0 in
21:55 43.5 °F 28.4 °F 30.3 in Calm     55 % 0 in
22:00 43.2 °F 28 °F 30.3 in SW 1.4 mph 1.4 mph 55 % 0 in
22:05 43 °F 27.9 °F 30.3 in SW 1.2 mph 1.2 mph 55 % 0 in
22:10 42.8 °F 28.2 °F 30.3 in Calm     56 % 0 in
22:15 38.7 °F 25.2 °F 30.2 in NNE 1 mph 2 mph 58 % 0 in
22:20 42.6 °F 28 °F 30.3 in SW 1.2 mph 1.2 mph 56 % 0 in
22:25 42.4 °F 27.9 °F 30.3 in Calm     56 % 0 in
22:30 42.4 °F 27.9 °F 30.3 in SW 1.2 mph   56 % 0 in
22:35 42.3 °F 27.7 °F 30.3 in SW 2.3 mph 2.3 mph 56 % 0 in
22:40 42.1 °F 27.9 °F 30.3 in Calm     57 % 0 in
22:45 36.9 °F 24.3 °F 30.2 in WSW 2 mph 2 mph 60 % 0 in
22:50 42.4 °F 27.9 °F 30.3 in West 2.3 mph 2.3 mph 56 % 0 in
22:55 42.1 °F 27.5 °F 30.3 in West 0.9 mph   56 % 0 in
23:05 42.1 °F 27.5 °F 30.3 in West 1.6 mph 1.6 mph 56 % 0 in
23:10 42.4 °F 27.9 °F 30.3 in West 1.4 mph 1.4 mph 56 % 0 in
23:15 42.1 °F 27.5 °F 30.3 in West 2.3 mph 2.3 mph 56 % 0 in
23:25 42.3 °F 27.7 °F 30.3 in NW 1.2 mph 1.2 mph 56 % 0 in
23:30 42.3 °F 27.7 °F 30.3 in Calm     56 % 0 in
23:35 42.1 °F 27.5 °F 30.3 in NNE 3.5 mph 3.5 mph 56 % 0 in
23:40 41.7 °F 27.1 °F 30.3 in NNW 1.4 mph   56 % 0 in
23:45 41.9 °F 27.3 °F 30.3 in WNW 1.2 mph 1.2 mph 56 % 0 in
23:55 41.4 °F 26.8 °F 30.3 in Calm     56 % 0 in
Meteo Sesrovires
Elogis d' Weather Underground - 3.5 mb

Guio original per  Jim McMurry - jmcmurry@mwt.net Adaptat per a la plantilla per  Wim van der Kuil - Leuven-Template.eu

Trobareu la nostra informacio del temps tambe a:

Weather Underground

AWEKAS